Detall de PIREP

Printer-friendly versionPDF version

[2010/11/06 18:35:00]
Flight IATA:CT3203
Pilot Number:026
Company ICAO:CAT
Aircraft Type:DC85/A
PAX:136
Departing Airport: LGAV
Destination Airport: LEPA
Alternate Airport:LEMH
Online: VATSIM
Route:RILIN/NN0300F320 UM601 QUENN UQ123 USEPI UZ924 SUPUX/N0300F330 UZ924 RIPAL DCT MORSS
Flight Level:FL330
No Slew and time accel
No pause
Crash detect
Detect pilot in Cockpit between each 30 and 45 minutes
18:35 Zero fuel Weight: 179498 Lbs, Fuel Weight: 35992 Lbs
18:35 VATSIM:LGAV 061820Z 26003KT CAVOK 15/11 Q1015 NOSIG
18:35 VATSIM:LEPA 061830Z 11002KT 9999 FEW016 BKN028 17/15 Q1018 NOSIG
18:35 VOICE CATALONIAN
18:44 Parking Brakes off
18:51 Take-off
18:51 Take off Weight: 214270 Lbs
18:51 Wind: 259º @ 003 Knots Heading: 216º
18:51 POS N37º 56´ 01´´ E023º 55´ 49´´
18:51 Gear Up: 161 Knots
18:51 Flaps:2 at 161 Knots
18:51 Flaps:1 at 146 Knots
18:53 Flaps:0 at 187 Knots
19:06 Wind:202º@004 Knots Heading: 277º Ground Speed: 460 Knots Altitude 31174 ft
19:21 Wind:244º@001 Knots Heading: 281º Ground Speed: 489 Knots Altitude 32073 ft
19:36 Wind:200º@032 Knots Heading: 283º Ground Speed: 486 Knots Altitude 32135 ft
19:51 Wind:137º@005 Knots Heading: 276º Ground Speed: 494 Knots Altitude 32109 ft
20:06 Wind:181º@005 Knots Heading: 286º Ground Speed: 491 Knots Altitude 32093 ft
20:21 Wind:208º@014 Knots Heading: 277º Ground Speed: 487 Knots Altitude 32099 ft
20:29 TOC
20:29 Fuel Weight: 8223 Lb
20:36 Wind:231º@005 Knots Heading: 259º Ground Speed: 476 Knots Altitude 33083 ft
20:40 TOD
20:40 Fuel Weight: 5802 Lb
20:51 Wind:274º@004 Knots Heading: 254º Ground Speed: 325 Knots Altitude 16482 ft
21:06 Wind:280º@003 Knots Heading: 274º Ground Speed: 191 Knots Altitude 4507 ft
21:09 Gear Down: 242 Knots
21:10 Flaps:1 at 226 Knots
21:10 Flaps:2 at 181 Knots
21:11 Flaps:3 at 162 Knots
21:12 Flaps:4 at 159 Knots
21:12 Flaps:5 at 147 Knots
21:13 TouchDown:Rate -204 ft/min Speed: 135 Knots
21:13 VATSIM:LEPA 062100Z VRB01KT 9999 FEW016 15/14 Q1017 NOSIG
21:13 Land
21:13 Wind:274º@003 Knots
21:13 Heading: 238º
21:13 Flight Duration: 02:22
21:13 Landing Weight: 182504 Lbs
21:13 POS N39º 32´ 49´´ E002º 44´ 37´´
21:19 Parking brakes on
21:19 Block to Block Duration: 02:35
21:19 Final Fuel: 2524 Lbls
21:19 Spent Fuel: 33467 Lbls
21:19 Flight Length: 1011 NM
21:19 TOD Land Length: 154 NM

Exportar CSV

Powered by Drupal - Modified by Danger4k